createdAt,value
2024-04-19T00:00:59.925Z,95306.00
2024-04-19T00:01:59.843Z,95304.00
2024-04-19T00:02:59.940Z,95306.00
2024-04-19T00:04:00.037Z,95306.00
2024-04-19T00:05:00.034Z,95305.00
2024-04-19T00:06:00.053Z,95304.00
2024-04-19T00:07:00.064Z,95306.00
2024-04-19T00:08:00.083Z,95306.00
2024-04-19T00:09:00.174Z,95307.00
2024-04-19T00:10:00.320Z,95307.00
2024-04-19T00:11:00.378Z,95306.00
2024-04-19T00:12:00.417Z,95309.00
2024-04-19T00:13:00.498Z,95308.00
2024-04-19T00:14:00.560Z,95310.00
2024-04-19T00:15:00.642Z,95311.00
2024-04-19T00:16:00.736Z,95311.00
2024-04-19T00:17:00.879Z,95311.00
2024-04-19T00:18:00.959Z,95309.00
2024-04-19T00:19:01.001Z,95307.00
2024-04-19T00:20:01.127Z,95308.00
2024-04-19T00:21:01.195Z,95308.00
2024-04-19T00:22:01.299Z,95306.00
2024-04-19T00:23:01.431Z,95307.00
2024-04-19T00:24:01.536Z,95306.00
2024-04-19T00:25:01.649Z,95307.00
2024-04-19T00:26:01.731Z,95307.00
2024-04-19T00:27:01.844Z,95309.00
2024-04-19T00:28:01.931Z,95310.00
2024-04-19T00:29:02.007Z,95311.00
2024-04-19T00:30:02.096Z,95309.00
2024-04-19T00:31:02.180Z,95307.00
2024-04-19T00:32:02.328Z,95308.00
2024-04-19T00:33:08.411Z,95303.00
2024-04-19T00:34:03.547Z,95306.00
2024-04-19T00:35:02.374Z,95304.00
2024-04-19T00:36:02.422Z,95305.00
2024-04-19T00:37:02.447Z,95303.00
2024-04-19T00:38:02.462Z,95301.00
2024-04-19T00:39:02.544Z,95300.00
2024-04-19T00:40:02.507Z,95298.00
2024-04-19T00:41:02.561Z,95298.00
2024-04-19T00:42:02.588Z,95297.00
2024-04-19T00:43:02.640Z,95296.00
2024-04-19T00:44:02.640Z,95292.00
2024-04-19T00:45:02.663Z,95292.00
2024-04-19T00:46:02.695Z,95288.00
2024-04-19T00:47:02.759Z,95287.00
2024-04-19T00:48:02.812Z,95288.00
2024-04-19T00:49:02.784Z,95285.00
2024-04-19T00:50:02.834Z,95284.00
2024-04-19T00:51:02.847Z,95283.00
2024-04-19T00:52:02.940Z,95283.00
2024-04-19T00:53:02.916Z,95281.00
2024-04-19T00:54:02.924Z,95277.00
2024-04-19T00:55:02.979Z,95275.00
2024-04-19T00:56:03.041Z,95275.00
2024-04-19T00:57:03.170Z,95272.00
2024-04-19T00:58:03.231Z,95272.00
2024-04-19T00:59:03.306Z,95274.00
2024-04-19T01:00:03.373Z,95276.00
2024-04-19T01:01:03.657Z,95276.00
2024-04-19T01:02:03.613Z,95279.00
2024-04-19T01:03:03.698Z,95278.00
2024-04-19T01:04:03.829Z,95278.00
2024-04-19T01:05:03.854Z,95276.00
2024-04-19T01:06:03.984Z,95276.00
2024-04-19T01:07:04.054Z,95273.00
2024-04-19T01:08:04.102Z,95273.00
2024-04-19T01:09:04.206Z,95271.00
2024-04-19T01:10:04.261Z,95270.00
2024-04-19T01:11:04.355Z,95269.00
2024-04-19T01:12:04.347Z,95269.00
2024-04-19T01:13:04.383Z,95270.00
2024-04-19T01:14:04.586Z,95269.00
2024-04-19T01:15:04.554Z,95271.00
2024-04-19T01:16:04.608Z,95266.00
2024-04-19T01:17:04.766Z,95264.00
2024-04-19T01:18:04.923Z,95265.00
2024-04-19T01:19:04.983Z,95266.00
2024-04-19T01:20:04.991Z,95261.00
2024-04-19T01:21:05.102Z,95266.00
2024-04-19T01:22:05.228Z,95266.00
2024-04-19T01:23:05.311Z,95265.00
2024-04-19T01:24:05.347Z,95264.00
2024-04-19T01:25:05.385Z,95266.00
2024-04-19T01:26:05.457Z,95266.00
2024-04-19T01:27:05.503Z,95266.00
2024-04-19T01:28:05.553Z,95266.00
2024-04-19T01:29:05.626Z,95265.00
2024-04-19T01:30:05.676Z,95267.00
2024-04-19T01:31:05.774Z,95266.00
2024-04-19T01:32:05.850Z,95265.00
2024-04-19T01:33:06.037Z,95263.00
2024-04-19T01:34:06.096Z,95263.00
2024-04-19T01:35:06.171Z,95266.00
2024-04-19T01:36:06.283Z,95267.00
2024-04-19T01:37:06.359Z,95265.00
2024-04-19T01:38:06.473Z,95266.00
2024-04-19T01:39:06.565Z,95266.00
2024-04-19T01:40:06.641Z,95264.00
2024-04-19T01:41:06.682Z,95265.00
2024-04-19T01:42:06.749Z,95267.00
2024-04-19T01:43:06.768Z,95266.00
2024-04-19T01:44:06.863Z,95264.00
2024-04-19T01:45:06.874Z,95266.00
2024-04-19T01:46:06.922Z,95266.00
2024-04-19T01:47:07.024Z,95265.00
2024-04-19T01:48:07.078Z,95263.00
2024-04-19T01:49:07.066Z,95264.00
2024-04-19T01:50:07.161Z,95262.00
2024-04-19T01:51:07.223Z,95262.00
2024-04-19T01:52:07.282Z,95262.00
2024-04-19T01:53:07.336Z,95262.00
2024-04-19T01:54:07.399Z,95261.00
2024-04-19T01:55:07.455Z,95263.00
2024-04-19T01:56:07.489Z,95263.00
2024-04-19T01:57:07.831Z,95265.00
2024-04-19T01:58:07.673Z,95262.00
2024-04-19T01:59:07.742Z,95261.00
2024-04-19T02:00:07.788Z,95261.00
2024-04-19T02:01:08.060Z,95263.00
2024-04-19T02:02:08.023Z,95262.00
2024-04-19T02:03:08.020Z,95263.00
2024-04-19T02:04:08.150Z,95262.00
2024-04-19T02:05:08.281Z,95263.00
2024-04-19T02:06:08.294Z,95263.00
2024-04-19T02:07:08.381Z,95263.00
2024-04-19T02:08:08.453Z,95260.00
2024-04-19T02:09:08.520Z,95258.00
2024-04-19T02:10:08.644Z,95255.00
2024-04-19T02:11:08.747Z,95256.00
2024-04-19T02:12:09.265Z,95256.00
2024-04-19T02:13:08.897Z,95258.00
2024-04-19T02:14:08.973Z,95258.00
2024-04-19T02:15:09.082Z,95258.00
2024-04-19T02:16:09.196Z,95256.00
2024-04-19T02:17:09.299Z,95258.00
2024-04-19T02:18:09.352Z,95256.00
2024-04-19T02:19:09.467Z,95256.00
2024-04-19T02:20:09.558Z,95255.00
2024-04-19T02:21:09.684Z,95254.00
2024-04-19T02:22:09.790Z,95256.00
2024-04-19T02:23:09.881Z,95254.00
2024-04-19T02:24:10.028Z,95254.00
2024-04-19T02:25:10.060Z,95252.00
2024-04-19T02:26:10.119Z,95251.00
2024-04-19T02:27:10.220Z,95251.00
2024-04-19T02:28:10.300Z,95250.00
2024-04-19T02:29:10.338Z,95250.00
2024-04-19T02:30:10.411Z,95251.00
2024-04-19T02:31:10.477Z,95248.00
2024-04-19T02:32:10.524Z,95250.00
2024-04-19T02:33:10.606Z,95250.00
2024-04-19T02:34:10.648Z,95251.00
2024-04-19T02:35:10.680Z,95248.00
2024-04-19T02:36:10.753Z,95249.00
2024-04-19T02:37:10.865Z,95248.00
2024-04-19T02:38:10.972Z,95247.00
2024-04-19T02:39:11.090Z,95247.00
2024-04-19T02:40:11.159Z,95246.00
2024-04-19T02:41:11.303Z,95243.00
2024-04-19T02:42:11.432Z,95244.00
2024-04-19T02:43:11.418Z,95242.00
2024-04-19T02:44:11.497Z,95243.00
2024-04-19T02:45:11.795Z,95245.00
2024-04-19T02:46:11.809Z,95245.00
2024-04-19T02:47:11.782Z,95245.00
2024-04-19T02:48:11.873Z,95244.00
2024-04-19T02:49:11.914Z,95243.00
2024-04-19T02:50:11.939Z,95244.00
2024-04-19T02:51:12.080Z,95242.00
2024-04-19T02:52:12.130Z,95244.00
2024-04-19T02:53:12.177Z,95244.00
2024-04-19T02:54:12.284Z,95244.00
2024-04-19T02:55:12.355Z,95239.00
2024-04-19T02:56:12.474Z,95238.00
2024-04-19T02:57:12.576Z,95236.00
2024-04-19T02:58:12.588Z,95234.00
2024-04-19T02:59:12.650Z,95234.00
2024-04-19T03:00:12.746Z,95231.00
2024-04-19T03:01:12.850Z,95229.00
2024-04-19T03:02:12.823Z,95229.00
2024-04-19T03:03:13.072Z,95227.00
2024-04-19T03:04:13.060Z,95224.00
2024-04-19T03:05:13.098Z,95221.00
2024-04-19T03:06:13.233Z,95223.00
2024-04-19T03:07:13.302Z,95219.00
2024-04-19T03:08:13.343Z,95223.00
2024-04-19T03:09:13.541Z,95223.00
2024-04-19T03:10:13.502Z,95221.00
2024-04-19T03:11:13.624Z,95219.00
2024-04-19T03:12:13.717Z,95219.00
2024-04-19T03:13:13.712Z,95220.00
2024-04-19T03:14:13.837Z,95219.00
2024-04-19T03:15:13.938Z,95217.00
2024-04-19T03:16:13.950Z,95216.00
2024-04-19T03:17:14.076Z,95217.00
2024-04-19T03:18:14.100Z,95214.00
2024-04-19T03:19:14.119Z,95214.00
2024-04-19T03:20:14.165Z,95215.00
2024-04-19T03:21:14.265Z,95214.00
2024-04-19T03:22:14.359Z,95210.00
2024-04-19T03:23:14.331Z,95207.00
2024-04-19T03:24:14.421Z,95211.00
2024-04-19T03:25:14.459Z,95207.00
2024-04-19T03:26:14.564Z,95211.00
2024-04-19T03:27:14.653Z,95208.00
2024-04-19T03:28:14.743Z,95211.00
2024-04-19T03:29:14.811Z,95210.00
2024-04-19T03:30:14.914Z,95209.00
2024-04-19T03:31:14.962Z,95209.00
2024-04-19T03:32:15.060Z,95207.00
2024-04-19T03:33:15.196Z,95207.00
2024-04-19T03:34:15.185Z,95206.00
2024-04-19T03:35:15.190Z,95200.00
2024-04-19T03:36:15.299Z,95199.00
2024-04-19T03:37:15.371Z,95199.00
2024-04-19T03:38:15.423Z,95197.00
2024-04-19T03:39:15.494Z,95199.00
2024-04-19T03:40:15.534Z,95201.00
2024-04-19T03:41:15.638Z,95199.00
2024-04-19T03:42:15.784Z,95199.00
2024-04-19T03:43:15.889Z,95198.00
2024-04-19T03:44:15.926Z,95198.00
2024-04-19T03:45:16.053Z,95193.00
2024-04-19T03:46:16.135Z,95197.00
2024-04-19T03:47:16.309Z,95194.00
2024-04-19T03:48:18.367Z,95196.00
2024-04-19T03:49:16.304Z,95196.00
2024-04-19T03:50:16.359Z,95196.00
2024-04-19T03:51:16.457Z,95195.00
2024-04-19T03:52:16.472Z,95196.00
2024-04-19T03:53:16.556Z,95195.00
2024-04-19T03:54:16.699Z,95195.00
2024-04-19T03:55:16.613Z,95196.00
2024-04-19T03:56:16.664Z,95193.00
2024-04-19T03:57:16.763Z,95191.00
2024-04-19T03:58:16.799Z,95188.00
2024-04-19T03:59:16.829Z,95189.00
2024-04-19T04:00:16.953Z,95188.00
2024-04-19T04:01:17.030Z,95187.00
2024-04-19T04:02:17.003Z,95189.00
2024-04-19T04:03:17.137Z,95187.00
2024-04-19T04:04:17.077Z,95184.00
2024-04-19T04:05:17.126Z,95187.00
2024-04-19T04:06:17.232Z,95187.00
2024-04-19T04:07:17.270Z,95189.00
2024-04-19T04:08:17.269Z,95188.00
2024-04-19T04:09:17.346Z,95189.00
2024-04-19T04:10:17.399Z,95191.00
2024-04-19T04:11:17.440Z,95189.00
2024-04-19T04:12:17.506Z,95189.00
2024-04-19T04:13:17.545Z,95189.00
2024-04-19T04:14:17.595Z,95186.00
2024-04-19T04:15:17.652Z,95187.00
2024-04-19T04:16:17.675Z,95187.00
2024-04-19T04:17:17.757Z,95182.00
2024-04-19T04:18:17.936Z,95183.00
2024-04-19T04:19:20.236Z,95182.00
2024-04-19T04:20:17.852Z,95182.00
2024-04-19T04:21:17.969Z,95182.00
2024-04-19T04:22:17.981Z,95183.00
2024-04-19T04:23:18.064Z,95182.00
2024-04-19T04:24:18.058Z,95181.00
2024-04-19T04:25:18.130Z,95183.00
2024-04-19T04:26:18.238Z,95184.00
2024-04-19T04:27:18.243Z,95185.00
2024-04-19T04:28:18.212Z,95186.00
2024-04-19T04:29:18.253Z,95185.00
2024-04-19T04:30:18.357Z,95187.00
2024-04-19T04:31:18.329Z,95186.00
2024-04-19T04:32:18.418Z,95185.00
2024-04-19T04:33:18.485Z,95186.00
2024-04-19T04:34:18.512Z,95187.00
2024-04-19T04:35:18.518Z,95188.00
2024-04-19T04:36:18.602Z,95188.00
2024-04-19T04:37:18.604Z,95188.00
2024-04-19T04:38:18.636Z,95187.00
2024-04-19T04:39:18.766Z,95188.00
2024-04-19T04:40:18.710Z,95190.00
2024-04-19T04:41:18.762Z,95191.00
2024-04-19T04:42:18.905Z,95187.00
2024-04-19T04:43:18.879Z,95185.00
2024-04-19T04:44:18.884Z,95184.00
2024-04-19T04:45:18.978Z,95182.00
2024-04-19T04:46:18.957Z,95183.00
2024-04-19T04:47:19.073Z,95184.00
2024-04-19T04:48:19.176Z,95185.00
2024-04-19T04:49:19.112Z,95186.00
2024-04-19T04:50:19.136Z,95184.00
2024-04-19T04:51:19.228Z,95185.00
2024-04-19T04:52:19.239Z,95187.00
2024-04-19T04:53:19.275Z,95186.00
2024-04-19T04:54:19.346Z,95187.00
2024-04-19T04:55:19.366Z,95188.00
2024-04-19T04:56:19.415Z,95190.00
2024-04-19T04:57:19.510Z,95187.00
2024-04-19T04:58:19.500Z,95189.00
2024-04-19T04:59:19.562Z,95189.00
2024-04-19T05:00:19.579Z,95190.00
2024-04-19T05:02:47.253Z,95196.00
2024-04-19T05:03:24.897Z,95192.00
2024-04-19T05:04:24.932Z,95191.00
2024-04-19T05:05:24.954Z,95189.00
2024-04-19T05:06:25.117Z,95187.00
2024-04-19T05:07:25.098Z,95190.00
2024-04-19T05:08:25.125Z,95186.00
2024-04-19T05:09:25.245Z,95187.00
2024-04-19T05:10:25.222Z,95185.00
2024-04-19T05:11:25.313Z,95188.00
2024-04-19T05:12:32.837Z,95186.00
2024-04-19T05:13:32.814Z,95188.00
2024-04-19T05:14:32.807Z,95188.00
2024-04-19T05:15:32.845Z,95190.00
2024-04-19T05:16:32.838Z,95188.00
2024-04-19T05:17:32.863Z,95185.00
2024-04-19T05:18:32.955Z,95187.00
2024-04-19T05:19:32.808Z,95186.00
2024-04-19T05:20:32.824Z,95187.00
2024-04-19T05:21:32.896Z,95184.00
2024-04-19T05:22:32.827Z,95185.00
2024-04-19T05:23:32.846Z,95181.00
2024-04-19T05:24:32.807Z,95180.00
2024-04-19T05:25:32.814Z,95180.00
2024-04-19T05:26:33.317Z,95180.00
2024-04-19T05:27:32.796Z,95183.00
2024-04-19T05:28:32.771Z,95183.00
2024-04-19T05:29:32.846Z,95183.00
2024-04-19T05:30:32.858Z,95181.00
2024-04-19T05:31:32.742Z,95181.00
2024-04-19T05:32:32.829Z,95179.00
2024-04-19T05:33:32.804Z,95177.00
2024-04-19T05:34:35.559Z,95177.00
2024-04-19T05:35:32.718Z,95177.00
2024-04-19T05:36:32.810Z,95175.00
2024-04-19T05:37:32.660Z,95176.00
2024-04-19T05:38:32.949Z,95176.00
2024-04-19T05:39:32.703Z,95175.00
2024-04-19T05:40:32.653Z,95175.00
2024-04-19T05:41:32.650Z,95175.00
2024-04-19T05:42:34.860Z,95180.00
2024-04-19T05:43:32.923Z,95181.00
2024-04-19T05:44:32.902Z,95180.00
2024-04-19T05:45:32.829Z,95182.00
2024-04-19T05:48:02.123Z,95178.00
2024-04-19T05:48:38.987Z,95179.00
2024-04-19T05:49:39.012Z,95179.00
2024-04-19T05:50:38.998Z,95180.00
2024-04-19T05:51:39.103Z,95178.00
2024-04-19T05:52:39.048Z,95178.00
2024-04-19T05:53:39.467Z,95180.00
2024-04-19T05:54:39.232Z,95178.00
2024-04-19T05:55:39.224Z,95176.00
2024-04-19T05:56:39.276Z,95176.00
2024-04-19T05:57:39.374Z,95176.00
2024-04-19T05:58:39.498Z,95175.00
2024-04-19T05:59:39.454Z,95174.00
2024-04-19T06:00:39.732Z,95173.00
2024-04-19T06:01:40.833Z,95173.00
2024-04-19T06:02:39.539Z,95172.00
2024-04-19T06:03:39.614Z,95170.00
2024-04-19T06:04:39.439Z,95171.00
2024-04-19T06:05:39.451Z,95168.00
2024-04-19T06:06:39.466Z,95171.00
2024-04-19T06:07:39.410Z,95171.00
2024-04-19T06:08:39.473Z,95169.00
2024-04-19T06:09:39.431Z,95171.00
2024-04-19T06:10:39.366Z,95172.00
2024-04-19T06:11:39.367Z,95173.00
2024-04-19T06:12:39.349Z,95175.00
2024-04-19T06:13:39.452Z,95177.00
2024-04-19T06:14:39.350Z,95179.00
2024-04-19T06:15:39.466Z,95179.00
2024-04-19T06:16:39.351Z,95176.00
2024-04-19T06:17:39.391Z,95177.00
2024-04-19T06:18:39.617Z,95177.00
2024-04-19T06:19:39.275Z,95175.00
2024-04-19T06:20:39.287Z,95176.00
2024-04-19T06:21:39.345Z,95174.00
2024-04-19T06:22:39.297Z,95174.00
2024-04-19T06:23:39.473Z,95174.00
2024-04-19T06:24:39.377Z,95174.00
2024-04-19T06:25:39.330Z,95173.00
2024-04-19T06:26:39.328Z,95171.00
2024-04-19T06:27:39.484Z,95170.00
2024-04-19T06:28:39.442Z,95169.00
2024-04-19T06:29:39.345Z,95168.00
2024-04-19T06:30:39.456Z,95165.00
2024-04-19T06:31:39.526Z,95167.00
2024-04-19T06:32:39.607Z,95167.00
2024-04-19T06:33:40.032Z,95167.00
2024-04-19T06:34:39.552Z,95165.00
2024-04-19T06:35:39.665Z,95163.00
2024-04-19T06:36:39.650Z,95161.00
2024-04-19T06:37:39.570Z,95160.00
2024-04-19T06:38:43.056Z,95161.00
2024-04-19T06:39:47.133Z,95161.00
2024-04-19T06:40:40.563Z,95164.00
2024-04-19T06:41:39.498Z,95164.00
2024-04-19T06:42:39.519Z,95166.00
2024-04-19T06:43:39.463Z,95165.00
2024-04-19T06:44:39.390Z,95162.00
2024-04-19T06:45:39.404Z,95162.00
2024-04-19T06:46:39.330Z,95160.00
2024-04-19T06:47:39.463Z,95160.00
2024-04-19T06:48:39.436Z,95159.00
2024-04-19T06:49:39.557Z,95157.00
2024-04-19T06:50:39.413Z,95156.00
2024-04-19T06:51:41.936Z,95156.00
2024-04-19T06:52:39.417Z,95156.00
2024-04-19T06:53:39.449Z,95154.00
2024-04-19T06:54:39.361Z,95155.00
2024-04-19T06:55:39.293Z,95154.00
2024-04-19T06:56:39.280Z,95150.00
2024-04-19T06:57:39.307Z,95147.00
2024-04-19T06:58:39.208Z,95143.00
2024-04-19T06:59:39.246Z,95142.00
2024-04-19T07:00:47.901Z,95142.00
2024-04-19T07:01:40.208Z,95141.00
2024-04-19T07:02:39.254Z,95142.00
2024-04-19T07:03:39.743Z,95143.00
2024-04-19T07:04:39.150Z,95143.00
2024-04-19T07:05:40.086Z,95141.00
2024-04-19T07:06:42.070Z,95141.00
2024-04-19T07:07:39.647Z,95142.00
2024-04-19T07:08:39.563Z,95142.00
2024-04-19T07:09:39.137Z,95142.00
2024-04-19T07:10:38.892Z,95142.00
2024-04-19T07:11:38.896Z,95142.00
2024-04-19T07:12:38.995Z,95143.00
2024-04-19T07:13:38.798Z,95141.00
2024-04-19T07:14:39.007Z,95142.00
2024-04-19T07:15:38.801Z,95141.00
2024-04-19T07:16:39.206Z,95140.00
2024-04-19T07:17:39.005Z,95137.00
2024-04-19T07:18:38.783Z,95136.00
2024-04-19T07:19:38.846Z,95132.00
2024-04-19T07:20:38.881Z,95130.00
2024-04-19T07:21:38.845Z,95129.00
2024-04-19T07:22:38.808Z,95132.00
2024-04-19T07:23:38.818Z,95129.00
2024-04-19T07:24:39.002Z,95128.00
2024-04-19T07:25:38.823Z,95125.00
2024-04-19T07:26:38.899Z,95125.00
2024-04-19T07:27:45.315Z,95123.00
2024-04-19T07:28:39.967Z,95123.00
2024-04-19T07:29:40.459Z,95121.00
2024-04-19T07:30:39.136Z,95124.00
2024-04-19T07:31:38.797Z,95120.00
2024-04-19T07:32:38.865Z,95122.00
2024-04-19T07:33:44.654Z,95121.00
2024-04-19T07:34:45.913Z,95119.00
2024-04-19T07:35:39.672Z,95115.00
2024-04-19T07:36:43.976Z,95116.00
2024-04-19T07:37:45.038Z,95115.00
2024-04-19T07:38:39.544Z,95111.00
2024-04-19T07:39:39.011Z,95108.00
2024-04-19T07:40:38.544Z,95108.00
2024-04-19T07:41:38.446Z,95106.00
2024-04-19T07:42:38.460Z,95102.00
2024-04-19T07:43:45.806Z,95098.00
2024-04-19T07:44:39.506Z,95099.00
2024-04-19T07:45:38.468Z,95095.00
2024-04-19T07:46:39.256Z,95093.00
2024-04-19T07:47:38.312Z,95090.00
2024-04-19T07:48:38.349Z,95090.00
2024-04-19T07:49:38.493Z,95089.00
2024-04-19T07:50:38.151Z,95088.00
2024-04-19T07:51:38.131Z,95084.00
2024-04-19T07:52:39.031Z,95082.00
2024-04-19T07:53:38.000Z,95082.00
2024-04-19T07:54:38.049Z,95078.00
2024-04-19T07:55:37.922Z,95076.00
2024-04-19T07:56:37.895Z,95076.00
2024-04-19T07:57:37.982Z,95077.00
2024-04-19T07:58:38.331Z,95074.00
2024-04-19T07:59:38.013Z,95076.00
2024-04-19T08:00:37.731Z,95075.00
2024-04-19T08:01:37.621Z,95072.00
2024-04-19T08:02:37.585Z,95071.00
2024-04-19T08:03:37.722Z,95070.00
2024-04-19T08:04:38.041Z,95069.00
2024-04-19T08:05:37.623Z,95065.00
2024-04-19T08:06:37.702Z,95063.00
2024-04-19T08:07:40.273Z,95061.00
2024-04-19T08:08:37.538Z,95062.00
2024-04-19T08:09:38.227Z,95061.00
2024-04-19T08:10:37.418Z,95060.00
2024-04-19T08:11:37.428Z,95057.00
2024-04-19T08:12:37.378Z,95057.00
2024-04-19T08:13:37.261Z,95054.00
2024-04-19T08:14:37.228Z,95054.00
2024-04-19T08:15:38.122Z,95052.00
2024-04-19T08:16:37.189Z,95050.00
2024-04-19T08:17:37.102Z,95048.00
2024-04-19T08:18:37.072Z,95048.00
2024-04-19T08:19:37.138Z,95049.00
2024-04-19T08:20:36.977Z,95046.00
2024-04-19T08:21:36.944Z,95041.00
2024-04-19T08:22:36.882Z,95043.00
2024-04-19T08:23:36.849Z,95041.00
2024-04-19T08:24:36.806Z,95037.00
2024-04-19T08:25:37.002Z,95034.00
2024-04-19T08:26:36.737Z,95034.00
2024-04-19T08:27:36.723Z,95032.00
2024-04-19T08:28:36.609Z,95033.00
2024-04-19T08:29:36.736Z,95033.00
2024-04-19T08:30:36.525Z,95032.00
2024-04-19T08:31:36.435Z,95030.00
2024-04-19T08:32:36.475Z,95033.00
2024-04-19T08:33:36.306Z,95036.00
2024-04-19T08:34:36.252Z,95038.00
2024-04-19T08:35:36.518Z,95035.00
2024-04-19T08:36:36.153Z,95035.00
2024-04-19T08:37:36.382Z,95035.00
2024-04-19T08:38:35.995Z,95031.00
2024-04-19T08:39:35.984Z,95029.00
2024-04-19T08:40:37.811Z,95030.00
2024-04-19T08:41:35.839Z,95029.00
2024-04-19T08:42:35.795Z,95029.00
2024-04-19T08:43:35.705Z,95028.00
2024-04-19T08:44:35.682Z,95025.00
2024-04-19T08:45:36.064Z,95023.00
2024-04-19T08:46:35.552Z,95020.00
2024-04-19T08:47:35.568Z,95016.00
2024-04-19T08:48:35.461Z,95016.00
2024-04-19T08:49:35.385Z,95015.00
2024-04-19T08:50:35.511Z,95012.00
2024-04-19T08:51:50.378Z,95012.00
2024-04-19T08:52:58.380Z,95008.00
2024-04-19T08:53:36.166Z,95006.00
2024-04-19T08:54:35.043Z,95004.00
2024-04-19T08:55:35.092Z,95001.00
2024-04-19T08:56:34.884Z,95000.00
2024-04-19T08:57:34.905Z,94998.00
2024-04-19T08:58:34.788Z,94998.00
2024-04-19T08:59:34.686Z,94997.00
2024-04-19T09:00:34.697Z,94999.00
2024-04-19T09:01:34.568Z,94998.00
2024-04-19T09:02:34.513Z,94995.00
2024-04-19T09:03:34.495Z,94994.00
2024-04-19T09:04:34.474Z,94993.00
2024-04-19T09:05:34.328Z,94993.00
2024-04-19T09:06:34.281Z,94993.00
2024-04-19T09:07:34.202Z,94993.00
2024-04-19T09:08:34.110Z,94992.00
2024-04-19T09:09:34.052Z,94991.00
2024-04-19T09:10:33.959Z,94987.00
2024-04-19T09:11:33.947Z,94987.00
2024-04-19T09:12:34.188Z,94986.00
2024-04-19T09:13:33.729Z,94986.00
2024-04-19T09:14:33.678Z,94986.00
2024-04-19T09:15:33.647Z,94984.00
2024-04-19T09:16:33.552Z,94982.00
2024-04-19T09:17:33.692Z,94981.00
2024-04-19T09:18:33.423Z,94978.00
2024-04-19T09:19:33.303Z,94978.00
2024-04-19T09:20:33.271Z,94975.00
2024-04-19T09:21:33.524Z,94975.00
2024-04-19T09:22:33.127Z,94975.00
2024-04-19T09:23:33.032Z,94974.00
2024-04-19T09:24:33.058Z,94970.00
2024-04-19T09:25:32.890Z,94969.00
2024-04-19T09:26:32.864Z,94967.00
2024-04-19T09:27:32.816Z,94965.00
2024-04-19T09:28:32.775Z,94960.00
2024-04-19T09:29:32.827Z,94958.00
2024-04-19T09:30:32.681Z,94955.00
2024-04-19T09:31:33.071Z,94954.00
2024-04-19T09:33:33.749Z,94952.00
2024-04-19T09:34:32.498Z,94949.00
2024-04-19T09:35:32.482Z,94949.00
2024-04-19T09:36:32.401Z,94944.00
2024-04-19T09:37:32.313Z,94941.00
2024-04-19T09:38:32.267Z,94939.00
2024-04-19T09:39:32.257Z,94941.00
2024-04-19T09:40:32.124Z,94937.00
2024-04-19T09:41:32.606Z,94936.00
2024-04-19T09:42:32.202Z,94936.00
2024-04-19T09:43:32.095Z,94932.00
2024-04-19T09:44:33.128Z,94931.00
2024-04-19T09:45:32.102Z,94928.00
2024-04-19T09:46:32.021Z,94926.00
2024-04-19T09:47:31.954Z,94926.00
2024-04-19T09:48:31.965Z,94924.00
2024-04-19T09:49:31.780Z,94921.00
2024-04-19T09:50:31.707Z,94924.00
2024-04-19T09:51:32.135Z,94920.00
2024-04-19T09:52:31.607Z,94918.00
2024-04-19T09:53:31.557Z,94914.00
2024-04-19T09:54:31.526Z,94911.00
2024-04-19T09:55:31.485Z,94909.00
2024-04-19T09:56:31.535Z,94909.00
2024-04-19T09:57:31.420Z,94910.00
2024-04-19T09:58:31.332Z,94911.00
2024-04-19T09:59:31.315Z,94909.00
2024-04-19T10:00:31.599Z,94911.00
2024-04-19T10:01:31.642Z,94907.00
2024-04-19T10:02:36.432Z,94908.00
2024-04-19T10:03:32.306Z,94904.00
2024-04-19T10:04:31.107Z,94903.00
2024-04-19T10:05:30.924Z,94902.00
2024-04-19T10:06:32.017Z,94899.00
2024-04-19T10:07:30.743Z,94894.00
2024-04-19T10:08:30.676Z,94892.00
2024-04-19T10:09:30.626Z,94888.00
2024-04-19T10:10:30.498Z,94890.00
2024-04-19T10:11:30.557Z,94890.00
2024-04-19T10:12:30.408Z,94886.00
2024-04-19T10:13:30.283Z,94883.00
2024-04-19T10:14:30.224Z,94880.00
2024-04-19T10:15:30.115Z,94879.00
2024-04-19T10:16:30.327Z,94880.00
2024-04-19T10:17:30.059Z,94879.00
2024-04-19T10:18:29.902Z,94872.00
2024-04-19T10:19:34.387Z,94868.00
2024-04-19T10:20:30.658Z,94867.00
2024-04-19T10:21:30.138Z,94868.00
2024-04-19T10:22:29.452Z,94866.00
2024-04-19T10:23:29.458Z,94861.00
2024-04-19T10:24:29.341Z,94860.00
2024-04-19T10:25:29.157Z,94857.00
2024-04-19T10:26:29.061Z,94861.00
2024-04-19T10:27:29.047Z,94856.00
2024-04-19T10:28:28.842Z,94860.00
2024-04-19T10:29:28.743Z,94858.00
2024-04-19T10:30:34.738Z,94860.00
2024-04-19T10:31:29.553Z,94852.00
2024-04-19T10:32:28.506Z,94847.00
2024-04-19T10:33:28.310Z,94845.00
2024-04-19T10:34:28.205Z,94837.00
2024-04-19T10:35:28.111Z,94835.00
2024-04-19T10:36:28.142Z,94832.00
2024-04-19T10:37:27.849Z,94832.00
2024-04-19T10:38:27.729Z,94831.00
2024-04-19T10:39:27.715Z,94832.00
2024-04-19T10:40:27.514Z,94825.00
2024-04-19T10:41:27.397Z,94821.00
2024-04-19T10:42:27.546Z,94819.00
2024-04-19T10:43:27.138Z,94817.00
2024-04-19T10:44:27.063Z,94813.00
2024-04-19T10:45:26.989Z,94807.00
2024-04-19T10:46:26.884Z,94805.00
2024-04-19T10:47:27.114Z,94805.00
2024-04-19T10:48:28.363Z,94805.00
2024-04-19T10:49:26.626Z,94805.00
2024-04-19T10:50:26.468Z,94805.00
2024-04-19T10:51:26.374Z,94804.00
2024-04-19T10:52:26.560Z,94801.00
2024-04-19T10:53:26.195Z,94798.00
2024-04-19T10:54:26.138Z,94798.00
2024-04-19T10:55:26.010Z,94797.00
2024-04-19T10:56:25.987Z,94791.00
2024-04-19T10:57:25.949Z,94785.00
2024-04-19T10:58:25.775Z,94776.00
2024-04-19T10:59:25.752Z,94772.00
2024-04-19T11:00:25.696Z,94768.00
2024-04-19T11:01:25.760Z,94763.00
2024-04-19T11:02:26.144Z,94761.00
2024-04-19T11:03:25.655Z,94761.00
2024-04-19T11:04:25.731Z,94757.00
2024-04-19T11:05:25.572Z,94749.00
2024-04-19T11:06:25.557Z,94745.00
2024-04-19T11:07:25.547Z,94744.00
2024-04-19T11:08:25.399Z,94739.00
2024-04-19T11:09:25.456Z,94740.00
2024-04-19T11:10:25.388Z,94735.00
2024-04-19T11:11:25.475Z,94731.00
2024-04-19T11:12:25.307Z,94731.00
2024-04-19T11:13:25.256Z,94729.00
2024-04-19T11:14:25.220Z,94730.00
2024-04-19T11:15:25.179Z,94725.00
2024-04-19T11:16:25.222Z,94719.00
2024-04-19T11:17:25.180Z,94715.00
2024-04-19T11:18:25.190Z,94713.00
2024-04-19T11:19:25.258Z,94709.00
2024-04-19T11:20:24.957Z,94710.00
2024-04-19T11:21:24.985Z,94705.00
2024-04-19T11:22:25.061Z,94702.00
2024-04-19T11:23:24.827Z,94700.00
2024-04-19T11:24:24.843Z,94697.00
2024-04-19T11:25:24.714Z,94695.00
2024-04-19T11:26:24.619Z,94693.00
2024-04-19T11:27:26.583Z,94684.00
2024-04-19T11:28:24.500Z,94692.00
2024-04-19T11:29:24.474Z,94684.00
2024-04-19T11:30:24.431Z,94684.00
2024-04-19T11:31:24.384Z,94677.00
2024-04-19T11:32:24.682Z,94673.00
2024-04-19T11:33:24.238Z,94673.00
2024-04-19T11:34:24.187Z,94674.00
2024-04-19T11:35:24.124Z,94674.00
2024-04-19T11:36:24.085Z,94670.00
2024-04-19T11:37:24.044Z,94667.00
2024-04-19T11:38:23.898Z,94665.00
2024-04-19T11:39:23.776Z,94661.00
2024-04-19T11:40:23.669Z,94657.00
2024-04-19T11:41:23.591Z,94651.00
2024-04-19T11:42:23.647Z,94653.00
2024-04-19T11:43:23.525Z,94651.00
2024-04-19T11:44:23.447Z,94648.00
2024-04-19T11:45:23.415Z,94646.00
2024-04-19T11:46:23.364Z,94647.00
2024-04-19T11:47:23.492Z,94641.00
2024-04-19T11:48:23.449Z,94642.00